createdAt,value
2018-03-25T00:01:32.470Z,27.00
2018-03-25T00:04:00.822Z,25.33
2018-03-25T00:06:29.243Z,29.33
2018-03-25T00:08:57.668Z,28.40
2018-03-25T00:11:26.080Z,29.57
2018-03-25T00:13:54.546Z,27.70
2018-03-25T00:16:22.901Z,29.17
2018-03-25T00:18:51.284Z,28.73
2018-03-25T00:21:19.697Z,27.50
2018-03-25T00:23:48.081Z,24.00
2018-03-25T00:26:16.508Z,27.87
2018-03-25T00:28:44.952Z,28.30
2018-03-25T00:31:13.317Z,29.20
2018-03-25T00:33:41.673Z,27.40
2018-03-25T00:36:10.150Z,28.83
2018-03-25T00:38:39.303Z,28.40
2018-03-25T00:41:07.716Z,26.73
2018-03-25T00:43:36.105Z,26.10
2018-03-25T00:46:04.541Z,28.33
2018-03-25T00:48:33.655Z,28.67
2018-03-25T00:51:02.060Z,28.73
2018-03-25T00:53:30.466Z,25.43
2018-03-25T00:55:58.904Z,27.87
2018-03-25T00:58:27.330Z,28.50
2018-03-25T01:00:55.708Z,28.43
2018-03-25T01:03:24.154Z,27.87
2018-03-25T01:05:52.577Z,27.53
2018-03-25T01:08:21.005Z,27.77
2018-03-25T01:10:49.447Z,28.50
2018-03-25T01:13:18.600Z,27.97
2018-03-25T01:15:58.888Z,29.10
2018-03-25T01:18:27.247Z,27.70
2018-03-25T01:20:55.638Z,27.67
2018-03-25T01:23:24.042Z,27.77
2018-03-25T01:25:53.208Z,27.47
2018-03-25T01:28:21.565Z,28.10
2018-03-25T01:30:50.052Z,28.30
2018-03-25T01:33:18.400Z,27.37
2018-03-25T01:35:46.805Z,26.60
2018-03-25T01:38:15.180Z,28.43
2018-03-25T01:40:43.608Z,27.43
2018-03-25T01:43:12.752Z,27.70
2018-03-25T01:45:41.186Z,30.03
2018-03-25T01:48:10.380Z,27.83
2018-03-25T01:50:38.763Z,30.07
2018-03-25T01:53:07.191Z,30.33
2018-03-25T01:55:35.568Z,31.30
2018-03-25T01:58:04.011Z,30.13
2018-03-25T02:00:32.855Z,31.67
2018-03-25T02:03:01.208Z,27.77
2018-03-25T02:05:29.598Z,29.93
2018-03-25T02:07:58.017Z,26.60
2018-03-25T02:10:27.198Z,32.03
2018-03-25T02:12:56.356Z,28.53
2018-03-25T02:15:24.795Z,29.53
2018-03-25T02:17:53.150Z,31.57
2018-03-25T02:20:22.338Z,32.23
2018-03-25T02:22:50.756Z,32.37
2018-03-25T02:25:19.183Z,31.53
2018-03-25T02:27:47.605Z,30.43
2018-03-25T02:30:16.005Z,33.73
2018-03-25T02:32:44.441Z,33.90
2018-03-25T02:35:13.640Z,33.57
2018-03-25T02:37:42.772Z,34.63
2018-03-25T02:40:11.157Z,31.37
2018-03-25T02:42:39.613Z,33.20
2018-03-25T02:45:08.055Z,33.07
2018-03-25T02:47:36.437Z,33.47
2018-03-25T02:50:04.827Z,33.50
2018-03-25T02:52:33.979Z,31.50
2018-03-25T02:55:02.443Z,33.20
2018-03-25T02:57:30.846Z,31.77
2018-03-25T02:59:59.277Z,30.83
2018-03-25T03:02:27.678Z,30.53
2018-03-25T03:04:56.126Z,35.03
2018-03-25T03:07:25.276Z,33.17
2018-03-25T03:09:54.017Z,32.90
2018-03-25T03:12:22.363Z,31.97
2018-03-25T03:14:50.734Z,33.83
2018-03-25T03:17:19.167Z,30.90
2018-03-25T03:19:47.575Z,33.87
2018-03-25T03:22:16.021Z,34.90
2018-03-25T03:24:44.378Z,31.70
2018-03-25T03:27:12.805Z,33.80
2018-03-25T03:29:41.195Z,32.73
2018-03-25T03:32:09.595Z,33.47
2018-03-25T03:34:38.001Z,30.20
2018-03-25T03:37:06.377Z,28.90
2018-03-25T03:39:34.758Z,31.27
2018-03-25T03:42:03.173Z,27.20
2018-03-25T03:44:31.551Z,32.13
2018-03-25T03:46:59.962Z,33.40
2018-03-25T03:49:28.339Z,30.70
2018-03-25T03:51:56.779Z,31.80
2018-03-25T03:54:25.160Z,32.63
2018-03-25T03:56:53.814Z,30.73
2018-03-25T03:59:22.217Z,34.13
2018-03-25T04:01:50.604Z,32.73
2018-03-25T04:04:18.974Z,31.40
2018-03-25T04:06:47.384Z,31.00
2018-03-25T04:09:15.744Z,32.13
2018-03-25T04:11:44.622Z,30.37
2018-03-25T04:14:13.041Z,32.20
2018-03-25T04:16:42.191Z,32.33
2018-03-25T04:19:10.635Z,29.50
2018-03-25T04:21:39.015Z,30.57
2018-03-25T04:24:07.414Z,30.80
2018-03-25T04:26:35.815Z,33.00
2018-03-25T04:29:04.225Z,29.53
2018-03-25T04:31:32.636Z,31.77
2018-03-25T04:34:01.049Z,29.83
2018-03-25T04:36:29.428Z,31.53
2018-03-25T04:38:57.816Z,26.27
2018-03-25T04:41:26.294Z,23.87
2018-03-25T04:43:54.662Z,32.13
2018-03-25T04:46:23.043Z,29.60
2018-03-25T04:48:51.436Z,29.97
2018-03-25T04:51:19.827Z,24.87
2018-03-25T04:53:48.205Z,29.57
2018-03-25T04:56:16.592Z,30.73
2018-03-25T04:58:45.766Z,25.37
2018-03-25T05:01:14.198Z,27.67
2018-03-25T05:03:42.585Z,28.10
2018-03-25T05:06:11.020Z,30.60
2018-03-25T05:08:40.193Z,27.53
2018-03-25T05:11:08.604Z,29.47
2018-03-25T05:13:37.752Z,29.67
2018-03-25T05:16:06.192Z,29.07
2018-03-25T05:18:34.582Z,27.60
2018-03-25T05:21:03.056Z,29.50
2018-03-25T05:23:31.483Z,28.00
2018-03-25T05:25:59.892Z,27.27
2018-03-25T05:28:29.046Z,26.80
2018-03-25T05:30:57.413Z,28.73
2018-03-25T05:33:25.926Z,28.87
2018-03-25T05:35:55.085Z,27.67
2018-03-25T05:38:23.500Z,26.33
2018-03-25T05:40:52.297Z,27.47
2018-03-25T05:43:21.461Z,29.80
2018-03-25T05:45:49.864Z,26.90
2018-03-25T05:48:18.250Z,29.47
2018-03-25T05:50:47.412Z,31.20
2018-03-25T05:53:15.824Z,31.00
2018-03-25T05:55:44.969Z,27.70
2018-03-25T05:58:13.385Z,30.87
2018-03-25T06:00:41.800Z,29.90
2018-03-25T06:03:10.202Z,28.33
2018-03-25T06:05:38.631Z,27.47
2018-03-25T06:08:06.997Z,29.67
2018-03-25T06:10:35.381Z,29.73
2018-03-25T06:13:03.812Z,29.03
2018-03-25T06:15:32.208Z,29.00
2018-03-25T06:18:00.665Z,30.80
2018-03-25T06:20:29.030Z,24.27
2018-03-25T06:22:57.545Z,23.17
2018-03-25T06:25:25.992Z,27.20
2018-03-25T06:27:54.388Z,30.53
2018-03-25T06:30:22.789Z,29.10
2018-03-25T06:32:51.179Z,27.87
2018-03-25T06:35:19.584Z,28.47
2018-03-25T06:37:48.794Z,27.87
2018-03-25T06:40:17.162Z,28.07
2018-03-25T06:42:46.731Z,26.37
2018-03-25T06:45:15.104Z,30.73
2018-03-25T06:47:43.503Z,27.63
2018-03-25T06:50:11.889Z,29.43
2018-03-25T06:52:41.065Z,29.13
2018-03-25T06:55:09.432Z,27.50
2018-03-25T06:57:37.859Z,27.60
2018-03-25T07:00:06.325Z,28.07
2018-03-25T07:02:35.452Z,29.57
2018-03-25T07:05:03.866Z,27.03
2018-03-25T07:07:32.237Z,29.70
2018-03-25T07:10:00.664Z,28.83
2018-03-25T07:12:29.084Z,28.63
2018-03-25T07:14:57.884Z,27.97
2018-03-25T07:17:26.296Z,28.43
2018-03-25T07:19:55.424Z,30.23
2018-03-25T07:22:23.884Z,28.47
2018-03-25T07:24:53.085Z,28.77
2018-03-25T07:27:21.490Z,28.00
2018-03-25T07:29:49.963Z,29.47
2018-03-25T07:32:19.374Z,29.00
2018-03-25T07:34:47.769Z,28.80
2018-03-25T07:37:16.156Z,25.77
2018-03-25T07:39:44.741Z,29.47
2018-03-25T07:42:13.118Z,28.33
2018-03-25T07:44:41.514Z,29.57
2018-03-25T07:47:09.900Z,29.73
2018-03-25T07:49:39.032Z,28.47
2018-03-25T07:52:08.260Z,29.10
2018-03-25T07:54:36.696Z,30.00
2018-03-25T07:57:05.075Z,29.27
2018-03-25T07:59:33.468Z,26.73
2018-03-25T08:02:01.868Z,28.87
2018-03-25T08:04:30.287Z,28.33
2018-03-25T08:06:59.424Z,28.03
2018-03-25T08:09:27.865Z,28.63
2018-03-25T08:11:56.989Z,28.77
2018-03-25T08:14:25.432Z,28.63
2018-03-25T08:16:54.576Z,29.07
2018-03-25T08:19:22.970Z,26.93
2018-03-25T08:21:51.377Z,29.47
2018-03-25T08:24:19.800Z,30.50
2018-03-25T08:26:48.202Z,27.87
2018-03-25T08:29:16.630Z,28.30
2018-03-25T08:31:45.763Z,25.93
2018-03-25T08:34:14.172Z,27.57
2018-03-25T08:36:43.454Z,28.83
2018-03-25T08:39:11.807Z,28.17
2018-03-25T08:41:42.212Z,27.70
2018-03-25T08:44:10.693Z,26.73
2018-03-25T08:46:39.193Z,27.50
2018-03-25T08:49:07.604Z,28.90
2018-03-25T08:51:36.021Z,28.53
2018-03-25T08:54:05.203Z,26.83
2018-03-25T08:56:33.979Z,25.67
2018-03-25T08:59:02.402Z,26.27
2018-03-25T09:01:31.700Z,26.80
2018-03-25T09:04:00.181Z,26.97
2018-03-25T09:06:28.623Z,25.57
2018-03-25T09:08:57.107Z,26.70
2018-03-25T09:11:25.533Z,24.87
2018-03-25T09:13:53.920Z,26.30
2018-03-25T09:16:22.383Z,27.07
2018-03-25T09:18:51.243Z,28.17
2018-03-25T09:21:19.728Z,25.63
2018-03-25T09:23:48.122Z,24.63
2018-03-25T09:26:17.034Z,26.87
2018-03-25T09:28:45.921Z,26.17
2018-03-25T09:31:14.342Z,26.47
2018-03-25T09:33:42.777Z,25.20
2018-03-25T09:36:12.312Z,26.77
2018-03-25T09:38:41.980Z,24.77
2018-03-25T09:41:10.408Z,24.90
2018-03-25T09:43:40.405Z,23.93
2018-03-25T09:46:08.814Z,24.73
2018-03-25T09:48:38.124Z,23.00
2018-03-25T09:51:06.612Z,23.10
2018-03-25T09:53:35.696Z,23.90
2018-03-25T09:56:04.505Z,23.27
2018-03-25T09:58:33.482Z,22.27
2018-03-25T10:01:07.689Z,21.50
2018-03-25T10:03:36.888Z,22.53
2018-03-25T10:06:06.609Z,21.80
2018-03-25T10:08:35.033Z,20.80
2018-03-25T10:11:03.802Z,21.70
2018-03-25T10:13:32.293Z,22.57
2018-03-25T10:16:01.217Z,20.83
2018-03-25T10:18:30.412Z,22.20
2018-03-25T10:20:58.803Z,19.70
2018-03-25T10:23:28.003Z,20.47
2018-03-25T10:25:57.555Z,18.47
2018-03-25T10:28:26.387Z,18.97
2018-03-25T10:30:55.896Z,18.67
2018-03-25T10:33:24.926Z,18.43
2018-03-25T10:35:53.351Z,19.70
2018-03-25T10:38:21.883Z,17.47
2018-03-25T10:40:50.387Z,16.70
2018-03-25T10:43:18.790Z,15.43
2018-03-25T10:45:47.297Z,17.93
2018-03-25T10:48:17.434Z,17.27
2018-03-25T10:50:45.877Z,16.10
2018-03-25T10:53:14.294Z,17.37
2018-03-25T10:55:42.716Z,16.90
2018-03-25T10:58:11.595Z,16.73
2018-03-25T11:00:39.989Z,17.00
2018-03-25T11:03:08.353Z,17.47
2018-03-25T11:05:38.444Z,17.47
2018-03-25T11:08:06.919Z,17.40
2018-03-25T11:10:35.322Z,16.73
2018-03-25T11:13:03.921Z,17.83
2018-03-25T11:15:32.336Z,18.47
2018-03-25T11:18:01.310Z,18.30
2018-03-25T11:20:30.970Z,18.67
2018-03-25T11:22:59.742Z,19.17
2018-03-25T11:25:28.194Z,18.30
2018-03-25T11:27:57.352Z,17.80
2018-03-25T11:30:26.007Z,19.07
2018-03-25T11:32:54.590Z,19.30
2018-03-25T11:35:23.049Z,19.57
2018-03-25T11:37:51.442Z,19.33
2018-03-25T11:40:19.891Z,19.30
2018-03-25T11:42:49.071Z,19.50
2018-03-25T11:45:17.443Z,19.53
2018-03-25T11:47:45.841Z,18.63
2018-03-25T11:50:14.971Z,20.63
2018-03-25T11:52:43.449Z,20.63
2018-03-25T11:55:11.831Z,20.00
2018-03-25T11:57:40.296Z,20.63
2018-03-25T12:00:08.733Z,21.03
2018-03-25T12:02:37.165Z,21.00
2018-03-25T12:05:05.572Z,21.40
2018-03-25T12:07:33.954Z,20.43
2018-03-25T12:10:02.393Z,19.77
2018-03-25T12:12:30.790Z,19.87
2018-03-25T12:14:59.288Z,21.03
2018-03-25T12:17:27.709Z,20.40
2018-03-25T12:19:56.578Z,20.63
2018-03-25T12:22:24.991Z,19.03
2018-03-25T12:24:53.359Z,19.80
2018-03-25T12:27:21.819Z,20.97
2018-03-25T12:29:50.229Z,20.07
2018-03-25T12:32:18.632Z,20.30
2018-03-25T12:34:47.022Z,20.00
2018-03-25T12:37:15.429Z,19.83
2018-03-25T12:39:43.842Z,21.23
2018-03-25T12:42:12.298Z,20.83
2018-03-25T12:44:41.516Z,20.13
2018-03-25T12:47:10.009Z,20.63
2018-03-25T12:49:38.442Z,22.50
2018-03-25T12:52:06.854Z,20.70
2018-03-25T12:54:35.296Z,21.20
2018-03-25T12:57:03.723Z,20.63
2018-03-25T12:59:32.166Z,21.00
2018-03-25T13:02:01.391Z,20.83
2018-03-25T13:04:29.783Z,20.40
2018-03-25T13:06:58.187Z,21.20
2018-03-25T13:09:26.609Z,22.00
2018-03-25T13:11:55.769Z,21.23
2018-03-25T13:14:24.166Z,20.27
2018-03-25T13:16:52.579Z,20.40
2018-03-25T13:19:21.013Z,22.33
2018-03-25T13:21:49.411Z,20.90
2018-03-25T13:24:18.600Z,20.53
2018-03-25T13:26:46.999Z,19.13
2018-03-25T13:29:15.782Z,20.57
2018-03-25T13:31:45.002Z,20.70
2018-03-25T13:34:13.633Z,20.43
2018-03-25T13:36:42.065Z,20.83
2018-03-25T13:39:10.499Z,20.53
2018-03-25T13:41:38.926Z,21.33
2018-03-25T13:44:07.321Z,21.30
2018-03-25T13:46:35.762Z,21.77
2018-03-25T13:49:04.911Z,20.93
2018-03-25T13:51:33.305Z,21.93
2018-03-25T13:54:01.775Z,22.30
2018-03-25T13:56:30.147Z,22.23
2018-03-25T13:58:58.580Z,21.57
2018-03-25T14:01:27.018Z,22.03
2018-03-25T14:03:55.387Z,21.77
2018-03-25T14:06:23.829Z,23.20
2018-03-25T14:08:52.220Z,21.97
2018-03-25T14:11:20.630Z,21.10
2018-03-25T14:13:49.057Z,21.87
2018-03-25T14:16:17.464Z,22.93
2018-03-25T14:18:45.908Z,21.73
2018-03-25T14:21:14.316Z,21.13
2018-03-25T14:23:42.735Z,20.83
2018-03-25T14:26:11.143Z,21.43
2018-03-25T14:28:39.545Z,20.83
2018-03-25T14:31:08.008Z,20.50
2018-03-25T14:33:37.167Z,20.93
2018-03-25T14:36:05.622Z,20.97
2018-03-25T14:38:33.983Z,20.27
2018-03-25T14:41:02.372Z,20.20
2018-03-25T14:43:30.781Z,21.27
2018-03-25T14:45:59.975Z,21.20
2018-03-25T14:48:28.395Z,21.33
2018-03-25T14:50:56.761Z,20.17
2018-03-25T14:53:25.193Z,21.00
2018-03-25T14:55:53.591Z,20.80
2018-03-25T14:58:22.370Z,21.60
2018-03-25T15:00:50.801Z,20.47
2018-03-25T15:03:19.228Z,21.73
2018-03-25T15:05:47.637Z,21.13
2018-03-25T15:08:16.070Z,20.73
2018-03-25T15:10:44.506Z,21.20
2018-03-25T15:13:12.917Z,19.87
2018-03-25T15:15:41.750Z,21.17
2018-03-25T15:18:10.901Z,20.13
2018-03-25T15:20:39.342Z,20.93
2018-03-25T15:23:07.829Z,20.73
2018-03-25T15:25:36.233Z,20.50
2018-03-25T15:28:04.708Z,21.17
2018-03-25T15:30:33.139Z,21.07
2018-03-25T15:33:02.696Z,20.60
2018-03-25T15:35:31.083Z,20.73
2018-03-25T15:37:59.550Z,20.17
2018-03-25T15:40:28.003Z,21.10
2018-03-25T15:42:56.377Z,21.13
2018-03-25T15:45:24.775Z,19.53
2018-03-25T15:47:53.227Z,20.63
2018-03-25T15:50:21.643Z,20.50
2018-03-25T15:52:50.092Z,20.83
2018-03-25T15:55:18.495Z,21.53
2018-03-25T15:57:46.914Z,20.83
2018-03-25T16:00:15.306Z,20.93
2018-03-25T16:02:43.761Z,21.47
2018-03-25T16:05:12.172Z,21.40
2018-03-25T16:07:40.585Z,21.07
2018-03-25T16:10:08.991Z,19.80
2018-03-25T16:12:37.358Z,20.00
2018-03-25T16:15:13.743Z,19.27
2018-03-25T16:17:42.933Z,20.63
2018-03-25T16:20:11.366Z,18.60
2018-03-25T16:22:39.798Z,19.93
2018-03-25T16:25:08.216Z,20.50
2018-03-25T16:27:36.706Z,20.30
2018-03-25T16:30:05.168Z,19.40
2018-03-25T16:32:33.590Z,19.37
2018-03-25T16:35:02.012Z,19.57
2018-03-25T16:37:31.197Z,20.00
2018-03-25T16:39:59.604Z,20.17
2018-03-25T16:42:27.987Z,19.87
2018-03-25T16:44:56.717Z,19.37
2018-03-25T16:47:25.154Z,18.83
2018-03-25T16:49:53.591Z,19.47
2018-03-25T16:52:21.994Z,19.93
2018-03-25T16:54:50.448Z,19.27
2018-03-25T16:57:18.844Z,18.77
2018-03-25T16:59:50.463Z,20.27
2018-03-25T17:02:18.889Z,18.77
2018-03-25T17:04:48.041Z,19.20
2018-03-25T17:07:16.542Z,18.70
2018-03-25T17:09:44.944Z,18.57
2018-03-25T17:12:14.098Z,18.70
2018-03-25T17:14:42.519Z,18.70
2018-03-25T17:17:11.731Z,20.40
2018-03-25T17:19:40.200Z,19.47
2018-03-25T17:22:09.347Z,18.87
2018-03-25T17:24:37.819Z,18.73
2018-03-25T17:27:06.247Z,19.70
2018-03-25T17:29:35.444Z,19.53
2018-03-25T17:32:04.646Z,19.23
2018-03-25T17:34:33.817Z,18.70
2018-03-25T17:37:02.262Z,17.27
2018-03-25T17:39:30.624Z,20.40
2018-03-25T17:42:01.020Z,18.53
2018-03-25T17:44:30.223Z,17.60
2018-03-25T17:46:58.623Z,18.50
2018-03-25T17:49:27.015Z,17.80
2018-03-25T17:51:55.404Z,18.37
2018-03-25T17:54:23.859Z,18.30
2018-03-25T17:56:52.229Z,17.97
2018-03-25T17:59:20.664Z,19.30
2018-03-25T18:01:50.075Z,18.43
2018-03-25T18:04:19.224Z,19.83
2018-03-25T18:06:47.632Z,18.67
2018-03-25T18:09:16.019Z,19.53
2018-03-25T18:11:44.376Z,17.63
2018-03-25T18:14:13.217Z,19.27
2018-03-25T18:16:41.606Z,17.90
2018-03-25T18:19:09.990Z,18.50
2018-03-25T18:21:38.380Z,16.50
2018-03-25T18:24:07.131Z,17.87
2018-03-25T18:26:35.540Z,19.07
2018-03-25T18:29:03.917Z,19.63
2018-03-25T18:31:32.364Z,17.87
2018-03-25T18:34:00.848Z,18.63
2018-03-25T18:36:29.274Z,18.47
2018-03-25T18:38:57.685Z,18.17
2018-03-25T18:41:26.886Z,18.80
2018-03-25T18:43:56.057Z,18.57
2018-03-25T18:46:24.432Z,17.90
2018-03-25T18:48:53.636Z,17.47
2018-03-25T18:51:22.024Z,18.67
2018-03-25T18:53:50.818Z,17.43
2018-03-25T18:56:26.410Z,18.77
2018-03-25T18:58:55.047Z,19.00
2018-03-25T19:01:24.185Z,17.83
2018-03-25T19:03:52.614Z,18.33
2018-03-25T19:06:21.006Z,16.77
2018-03-25T19:08:50.136Z,17.63
2018-03-25T19:11:18.697Z,19.50
2018-03-25T19:13:47.130Z,20.87
2018-03-25T19:16:15.610Z,19.90
2018-03-25T19:18:44.024Z,19.77
2018-03-25T19:21:14.039Z,18.13
2018-03-25T19:23:43.549Z,21.20
2018-03-25T19:26:12.690Z,20.17
2018-03-25T19:28:41.083Z,17.73
2018-03-25T19:31:11.605Z,17.60
2018-03-25T19:33:40.831Z,20.37
2018-03-25T19:36:09.269Z,21.07
2018-03-25T19:38:37.668Z,20.47
2018-03-25T19:41:06.040Z,21.97
2018-03-25T19:43:34.468Z,21.87
2018-03-25T19:46:02.879Z,20.90
2018-03-25T19:48:31.281Z,21.47
2018-03-25T19:50:59.693Z,21.77
2018-03-25T19:53:28.868Z,21.53
2018-03-25T19:55:57.283Z,22.30
2018-03-25T19:58:25.734Z,22.43
2018-03-25T20:00:54.115Z,20.93
2018-03-25T20:03:23.305Z,19.30
2018-03-25T20:05:51.736Z,21.47
2018-03-25T20:08:20.198Z,22.70
2018-03-25T20:10:48.993Z,22.47
2018-03-25T20:13:17.438Z,21.83
2018-03-25T20:15:46.459Z,20.17
2018-03-25T20:18:16.637Z,20.07
2018-03-25T20:20:45.293Z,21.23
2018-03-25T20:23:14.134Z,18.03
2018-03-25T20:25:43.342Z,20.73
2018-03-25T20:28:13.003Z,21.10
2018-03-25T20:30:41.415Z,23.23
2018-03-25T20:33:10.639Z,21.50
2018-03-25T20:35:39.047Z,22.33
2018-03-25T20:38:07.433Z,21.27
2018-03-25T20:40:35.964Z,21.27
2018-03-25T20:43:04.500Z,22.90
2018-03-25T20:45:37.390Z,22.73
2018-03-25T20:48:45.279Z,21.30
2018-03-25T20:51:14.809Z,22.20
2018-03-25T20:56:37.786Z,22.57
